Time,TemperatureF,DewpointF,PressureIn,WindDirection,WindDirectionDegrees,WindSpeedMPH,WindSpeedGustMPH,Humidity,HourlyPrecipIn,Conditions,Clouds,dailyrainin,SoftwareType,DateUTC
2013-05-21 00:01:00,71.0,40.0,29.92,West,277,3.0,5.0,32,0.00,,,0.00,,2013-05-21 07:01:00,
2013-05-21 00:21:00,71.0,39.0,29.92,WSW,254,2.0,5.0,31,0.00,,,0.00,,2013-05-21 07:21:00,
2013-05-21 00:31:00,70.0,45.0,29.91,SSE,167,4.0,5.0,40,0.00,,,0.00,,2013-05-21 07:31:00,
2013-05-21 00:51:00,67.0,46.0,29.92,SE,132,5.0,7.0,47,0.00,,,0.00,,2013-05-21 07:51:00,
2013-05-21 01:01:00,66.0,46.0,29.92,ESE,105,7.0,8.0,48,0.00,,,0.00,,2013-05-21 08:01:00,
2013-05-21 01:11:00,66.0,46.0,29.92,ESE,105,7.0,8.0,48,0.00,,,0.00,,2013-05-21 08:11:00,
2013-05-21 01:21:00,65.0,41.0,29.91,East,81,8.0,11.0,42,0.00,,,0.00,,2013-05-21 08:21:00,
2013-05-21 01:31:00,62.0,40.0,29.91,East,82,10.0,11.0,45,0.00,,,0.00,,2013-05-21 08:31:00,
2013-05-21 01:41:00,60.0,46.0,29.91,East,80,9.0,13.0,60,0.00,,,0.00,,2013-05-21 08:41:00,
2013-05-21 01:52:00,60.0,46.0,29.91,East,80,9.0,13.0,60,0.00,,,0.00,,2013-05-21 08:52:00,
2013-05-21 02:01:00,59.0,49.0,29.90,ENE,64,10.0,12.0,69,0.00,,,0.00,,2013-05-21 09:01:00,
2013-05-21 02:11:00,59.0,49.0,29.90,ENE,64,10.0,12.0,69,0.00,,,0.00,,2013-05-21 09:11:00,
2013-05-21 02:21:00,60.0,47.0,29.90,ENE,76,6.0,10.0,63,0.00,,,0.00,,2013-05-21 09:21:00,
2013-05-21 02:32:00,60.0,48.0,29.90,East,80,5.0,7.0,65,0.00,,,0.00,,2013-05-21 09:32:00,
2013-05-21 02:41:00,60.0,48.0,29.90,East,80,5.0,7.0,65,0.00,,,0.00,,2013-05-21 09:41:00,
2013-05-21 02:52:00,58.0,48.0,29.90,East,83,8.0,10.0,69,0.00,,,0.00,,2013-05-21 09:52:00,
2013-05-21 03:02:00,58.0,47.0,29.89,East,89,9.0,11.0,66,0.00,,,0.00,,2013-05-21 10:02:00,
2013-05-21 03:12:00,58.0,47.0,29.89,East,89,9.0,11.0,66,0.00,,,0.00,,2013-05-21 10:12:00,
2013-05-21 03:22:00,61.0,46.0,29.89,East,81,10.0,13.0,58,0.00,,,0.00,,2013-05-21 10:22:00,
2013-05-21 03:32:00,61.0,46.0,29.89,East,81,10.0,13.0,58,0.00,,,0.00,,2013-05-21 10:32:00,
2013-05-21 03:41:00,61.0,46.0,29.89,East,81,10.0,13.0,58,0.00,,,0.00,,2013-05-21 10:41:00,
2013-05-21 03:52:00,61.0,45.0,29.88,East,80,8.0,10.0,56,0.00,,,0.00,,2013-05-21 10:52:00,
2013-05-21 04:02:00,62.0,45.0,29.88,East,82,2.0,5.0,54,0.00,,,0.00,,2013-05-21 11:02:00,
2013-05-21 04:21:00,60.0,47.0,29.88,East,82,0.0,3.0,63,0.00,,,0.00,,2013-05-21 11:21:00,
2013-05-21 04:31:00,56.0,49.0,29.88,ENE,78,6.0,8.0,77,0.00,,,0.00,,2013-05-21 11:31:00,
2013-05-21 04:41:00,56.0,49.0,29.88,ENE,78,6.0,8.0,77,0.00,,,0.00,,2013-05-21 11:41:00,
2013-05-21 04:51:00,57.0,48.0,29.89,ENE,64,3.0,7.0,72,0.00,,,0.00,,2013-05-21 11:51:00,
2013-05-21 05:01:00,59.0,48.0,29.89,ENE,64,0.0,4.0,68,0.00,,,0.00,,2013-05-21 12:01:00,
2013-05-21 05:11:00,59.0,48.0,29.89,ENE,64,0.0,4.0,68,0.00,,,0.00,,2013-05-21 12:11:00,
2013-05-21 05:21:00,57.0,50.0,29.90,ESE,123,5.0,7.0,77,0.00,,,0.00,,2013-05-21 12:21:00,
2013-05-21 05:31:00,55.0,51.0,29.89,East,93,8.0,9.0,85,0.00,,,0.00,,2013-05-21 12:31:00,
2013-05-21 05:41:00,55.0,51.0,29.89,East,93,8.0,9.0,85,0.00,,,0.00,,2013-05-21 12:41:00,
2013-05-21 05:51:00,54.0,51.0,29.90,East,80,12.0,14.0,91,0.00,,,0.00,,2013-05-21 12:51:00,
2013-05-21 06:01:00,54.0,52.0,29.90,ENE,67,7.0,11.0,93,0.00,,,0.00,,2013-05-21 13:01:00,
2013-05-21 06:11:00,54.0,52.0,29.90,ENE,67,7.0,11.0,93,0.00,,,0.00,,2013-05-21 13:11:00,
2013-05-21 06:21:00,54.0,53.0,29.90,East,84,8.0,10.0,95,0.00,,,0.00,,2013-05-21 13:21:00,
2013-05-21 06:31:00,54.0,53.0,29.90,East,80,14.0,16.0,96,0.00,,,0.00,,2013-05-21 13:31:00,
2013-05-21 06:41:00,54.0,53.0,29.90,East,80,14.0,16.0,96,0.00,,,0.00,,2013-05-21 13:41:00,
2013-05-21 06:52:00,54.0,53.0,29.90,ENE,77,14.0,19.0,97,0.00,,,0.00,,2013-05-21 13:52:00,
2013-05-21 07:01:00,54.0,53.0,29.91,ENE,72,10.0,12.0,97,0.00,,,0.00,,2013-05-21 14:01:00,
2013-05-21 07:11:00,54.0,53.0,29.91,ENE,72,10.0,12.0,97,0.00,,,0.00,,2013-05-21 14:11:00,
2013-05-21 07:21:00,55.0,54.0,29.91,ENE,67,11.0,15.0,97,0.00,,,0.00,,2013-05-21 14:21:00,
2013-05-21 07:31:00,55.0,54.0,29.92,ENE,66,5.0,8.0,97,0.00,,,0.00,,2013-05-21 14:31:00,
2013-05-21 07:41:00,55.0,54.0,29.92,ENE,66,5.0,8.0,97,0.00,,,0.00,,2013-05-21 14:41:00,
2013-05-21 07:52:00,55.0,54.0,29.93,ENE,70,3.0,9.0,97,0.00,,,0.00,,2013-05-21 14:52:00,
2013-05-21 08:01:00,57.0,56.0,29.93,East,80,7.0,10.0,96,0.00,,,0.00,,2013-05-21 15:01:00,
2013-05-21 08:11:00,58.0,56.0,29.93,East,101,4.0,9.0,94,0.00,,,0.00,,2013-05-21 15:11:00,
2013-05-21 08:21:00,58.0,56.0,29.93,East,101,4.0,9.0,94,0.00,,,0.00,,2013-05-21 15:21:00,
2013-05-21 08:32:00,59.0,56.0,29.94,ENE,69,0.0,5.0,91,0.00,,,0.00,,2013-05-21 15:32:00,
2013-05-21 08:42:00,61.0,56.0,29.94,ENE,69,0.0,4.0,84,0.00,,,0.00,,2013-05-21 15:42:00,
2013-05-21 08:52:00,61.0,56.0,29.94,ENE,69,0.0,4.0,84,0.00,,,0.00,,2013-05-21 15:52:00,
2013-05-21 09:02:00,60.0,56.0,29.94,WNW,282,3.0,8.0,87,0.00,,,0.00,,2013-05-21 16:02:00,
2013-05-21 09:12:00,60.0,56.0,29.94,WNW,282,3.0,8.0,87,0.00,,,0.00,,2013-05-21 16:12:00,
2013-05-21 09:23:00,60.0,56.0,29.94,WNW,282,3.0,8.0,87,0.00,,,0.00,,2013-05-21 16:23:00,
2013-05-21 09:32:00,61.0,56.0,29.94,West,277,5.0,8.0,84,0.00,,,0.00,,2013-05-21 16:32:00,
2013-05-21 09:42:00,62.0,56.0,29.94,West,275,5.0,8.0,81,0.00,,,0.00,,2013-05-21 16:42:00,
2013-05-21 09:52:00,62.0,56.0,29.94,West,275,5.0,8.0,81,0.00,,,0.00,,2013-05-21 16:52:00,
2013-05-21 10:02:00,63.0,56.0,29.94,West,278,8.0,11.0,77,0.00,,,0.00,,2013-05-21 17:02:00,
2013-05-21 10:11:00,63.0,56.0,29.94,West,278,8.0,11.0,77,0.00,,,0.00,,2013-05-21 17:11:00,
2013-05-21 10:22:00,64.0,56.0,29.94,WNW,293,7.0,12.0,75,0.00,,,0.00,,2013-05-21 17:22:00,
2013-05-21 10:32:00,64.0,56.0,29.94,WNW,301,6.0,15.0,76,0.00,,,0.00,,2013-05-21 17:32:00,
2013-05-21 10:43:00,64.0,57.0,29.93,WNW,302,7.0,13.0,77,0.00,,,0.00,,2013-05-21 17:43:00,
2013-05-21 10:52:00,64.0,57.0,29.93,WNW,302,7.0,13.0,77,0.00,,,0.00,,2013-05-21 17:52:00,
2013-05-21 11:01:00,65.0,58.0,29.93,WNW,284,6.0,11.0,78,0.00,,,0.00,,2013-05-21 18:01:00,
2013-05-21 11:11:00,65.0,58.0,29.93,WNW,284,6.0,11.0,78,0.00,,,0.00,,2013-05-21 18:11:00,
2013-05-21 11:22:00,65.0,58.0,29.94,WNW,284,5.0,11.0,77,0.00,,,0.00,,2013-05-21 18:22:00,
2013-05-21 11:32:00,66.0,58.0,29.94,WNW,294,7.0,12.0,76,0.00,,,0.00,,2013-05-21 18:32:00,
2013-05-21 11:41:00,67.0,58.0,29.94,West,265,5.0,11.0,74,0.00,,,0.00,,2013-05-21 18:41:00,
2013-05-21 11:52:00,67.0,58.0,29.94,West,265,5.0,11.0,74,0.00,,,0.00,,2013-05-21 18:52:00,
2013-05-21 12:01:00,66.0,58.0,29.94,WNW,282,7.0,12.0,76,0.00,,,0.00,,2013-05-21 19:01:00,
2013-05-21 12:11:00,66.0,58.0,29.94,WNW,282,7.0,12.0,76,0.00,,,0.00,,2013-05-21 19:11:00,
2013-05-21 12:21:00,66.0,59.0,29.94,WNW,296,3.0,11.0,78,0.00,,,0.00,,2013-05-21 19:21:00,
2013-05-21 12:31:00,67.0,59.0,29.93,WNW,300,2.0,8.0,76,0.00,,,0.00,,2013-05-21 19:31:00,
2013-05-21 12:41:00,67.0,59.0,29.93,WNW,300,2.0,8.0,76,0.00,,,0.00,,2013-05-21 19:41:00,
2013-05-21 12:52:00,68.0,58.0,29.92,WNW,303,7.0,11.0,71,0.00,,,0.00,,2013-05-21 19:52:00,
2013-05-21 13:02:00,68.0,59.0,29.92,WNW,301,0.0,8.0,74,0.00,,,0.00,,2013-05-21 20:02:00,
2013-05-21 13:11:00,68.0,59.0,29.92,WNW,301,0.0,8.0,74,0.00,,,0.00,,2013-05-21 20:11:00,
2013-05-21 13:22:00,70.0,59.0,29.92,NW,313,2.0,6.0,68,0.00,,,0.00,,2013-05-21 20:22:00,
2013-05-21 13:32:00,70.0,59.0,29.92,NE,34,1.0,5.0,68,0.00,,,0.00,,2013-05-21 20:32:00,
2013-05-21 13:42:00,70.0,59.0,29.92,NE,34,1.0,5.0,68,0.00,,,0.00,,2013-05-21 20:42:00,
2013-05-21 13:52:00,71.0,59.0,29.91,WNW,294,3.0,7.0,65,0.00,,,0.00,,2013-05-21 20:52:00,
2013-05-21 14:01:00,68.0,58.0,29.91,WSW,250,6.0,10.0,70,0.00,,,0.00,,2013-05-21 21:01:00,
2013-05-21 14:11:00,68.0,58.0,29.91,WSW,250,6.0,10.0,70,0.00,,,0.00,,2013-05-21 21:11:00,
2013-05-21 14:21:00,69.0,59.0,29.91,West,279,6.0,12.0,70,0.00,,,0.00,,2013-05-21 21:21:00,
2013-05-21 14:32:00,69.0,59.0,29.91,West,267,7.0,12.0,70,0.00,,,0.00,,2013-05-21 21:32:00,
2013-05-21 14:43:00,67.0,58.0,29.90,NW,306,7.0,15.0,73,0.00,,,0.00,,2013-05-21 21:43:00,
2013-05-21 14:54:00,67.0,58.0,29.90,NW,306,7.0,15.0,73,0.00,,,0.00,,2013-05-21 21:54:00,
2013-05-21 15:02:00,67.0,58.0,29.91,West,259,11.0,17.0,72,0.00,,,0.00,,2013-05-21 22:02:00,
2013-05-21 15:12:00,67.0,58.0,29.91,West,259,11.0,17.0,72,0.00,,,0.00,,2013-05-21 22:12:00,
2013-05-21 15:22:00,66.0,57.0,29.89,SW,236,4.0,11.0,73,0.00,,,0.00,,2013-05-21 22:22:00,
2013-05-21 15:33:00,68.0,58.0,29.89,WSW,252,11.0,16.0,70,0.00,,,0.00,,2013-05-21 22:33:00,
2013-05-21 15:41:00,68.0,58.0,29.89,WSW,252,11.0,16.0,70,0.00,,,0.00,,2013-05-21 22:41:00,
2013-05-21 15:52:00,65.0,57.0,29.89,West,267,9.0,16.0,76,0.00,,,0.00,,2013-05-21 22:52:00,
2013-05-21 16:02:00,65.0,57.0,29.88,West,281,9.0,15.0,76,0.00,,,0.00,,2013-05-21 23:02:00,
2013-05-21 16:11:00,65.0,57.0,29.88,West,281,9.0,15.0,76,0.00,,,0.00,,2013-05-21 23:11:00,
2013-05-21 16:22:00,64.0,56.0,29.88,WNW,293,8.0,15.0,76,0.00,,,0.00,,2013-05-21 23:22:00,
2013-05-21 16:32:00,64.0,57.0,29.87,WNW,287,6.0,13.0,77,0.00,,,0.00,,2013-05-21 23:32:00,
2013-05-21 16:42:00,65.0,56.0,29.86,West,259,7.0,11.0,74,0.00,,,0.00,,2013-05-21 23:42:00,
2013-05-21 16:52:00,65.0,56.0,29.86,West,259,7.0,11.0,74,0.00,,,0.00,,2013-05-21 23:52:00,
2013-05-21 17:01:00,64.0,57.0,29.85,WNW,283,7.0,12.0,77,0.00,,,0.00,,2013-05-22 00:01:00,
2013-05-21 17:11:00,64.0,57.0,29.85,WNW,283,7.0,12.0,77,0.00,,,0.00,,2013-05-22 00:11:00,
2013-05-21 17:21:00,63.0,56.0,29.86,West,281,10.0,18.0,79,0.00,,,0.00,,2013-05-22 00:21:00,
2013-05-21 17:31:00,63.0,57.0,29.86,WNW,294,9.0,14.0,80,0.00,,,0.00,,2013-05-22 00:31:00,
2013-05-21 17:41:00,63.0,57.0,29.86,WNW,294,9.0,14.0,80,0.00,,,0.00,,2013-05-22 00:41:00,
2013-05-21 17:52:00,64.0,56.0,29.85,WNW,296,9.0,13.0,76,0.00,,,0.00,,2013-05-22 00:52:00,
2013-05-21 18:01:00,65.0,57.0,29.85,WNW,294,7.0,12.0,75,0.00,,,0.00,,2013-05-22 01:01:00,
2013-05-21 18:11:00,65.0,57.0,29.85,WNW,294,7.0,12.0,75,0.00,,,0.00,,2013-05-22 01:11:00,
2013-05-21 18:21:00,64.0,56.0,29.84,West,269,8.0,13.0,74,0.00,,,0.00,,2013-05-22 01:21:00,
2013-05-21 18:31:00,65.0,56.0,29.84,West,267,5.0,11.0,74,0.00,,,0.00,,2013-05-22 01:31:00,
2013-05-21 18:41:00,65.0,56.0,29.84,West,272,4.0,7.0,72,0.00,,,0.00,,2013-05-22 01:41:00,
2013-05-21 18:52:00,65.0,56.0,29.84,West,272,4.0,7.0,72,0.00,,,0.00,,2013-05-22 01:52:00,
2013-05-21 19:01:00,65.0,55.0,29.84,WNW,299,6.0,9.0,71,0.00,,,0.00,,2013-05-22 02:01:00,
2013-05-21 19:11:00,65.0,55.0,29.84,WNW,299,6.0,9.0,71,0.00,,,0.00,,2013-05-22 02:11:00,
2013-05-21 19:21:00,63.0,55.0,29.84,West,270,7.0,10.0,75,0.00,,,0.00,,2013-05-22 02:21:00,
2013-05-21 19:31:00,61.0,54.0,29.84,WNW,299,5.0,9.0,79,0.00,,,0.00,,2013-05-22 02:31:00,
2013-05-21 19:41:00,61.0,54.0,29.84,West,261,3.0,5.0,79,0.00,,,0.00,,2013-05-22 02:41:00,
2013-05-21 19:52:00,61.0,54.0,29.84,West,261,3.0,5.0,79,0.00,,,0.00,,2013-05-22 02:52:00,
2013-05-21 20:01:00,60.0,54.0,29.83,WNW,284,2.0,5.0,80,0.00,,,0.00,,2013-05-22 03:01:00,
2013-05-21 20:11:00,60.0,54.0,29.83,WNW,284,2.0,5.0,80,0.00,,,0.00,,2013-05-22 03:11:00,
2013-05-21 20:21:00,59.0,53.0,29.84,West,269,4.0,5.0,81,0.00,,,0.00,,2013-05-22 03:21:00,
2013-05-21 20:33:00,57.0,52.0,29.84,West,265,1.0,7.0,83,0.00,,,0.00,,2013-05-22 03:33:00,
2013-05-21 20:43:00,57.0,51.0,29.84,West,261,3.0,5.0,81,0.00,,,0.00,,2013-05-22 03:43:00,
2013-05-21 20:53:00,57.0,51.0,29.84,West,261,3.0,5.0,81,0.00,,,0.00,,2013-05-22 03:53:00,
2013-05-21 21:03:00,57.0,50.0,29.85,West,277,4.0,7.0,78,0.00,,,0.00,,2013-05-22 04:03:00,
2013-05-21 21:12:00,57.0,50.0,29.85,West,277,4.0,7.0,78,0.00,,,0.00,,2013-05-22 04:12:00,
2013-05-21 21:22:00,56.0,49.0,29.85,West,273,4.0,6.0,76,0.00,,,0.00,,2013-05-22 04:22:00,
2013-05-21 21:33:00,55.0,46.0,29.85,West,261,5.0,6.0,72,0.00,,,0.00,,2013-05-22 04:33:00,
2013-05-21 21:42:00,55.0,45.0,29.85,SW,232,3.0,7.0,68,0.00,,,0.00,,2013-05-22 04:42:00,
2013-05-21 21:53:00,55.0,45.0,29.85,SW,232,3.0,7.0,68,0.00,,,0.00,,2013-05-22 04:53:00,
2013-05-21 22:02:00,56.0,45.0,29.86,ESE,107,2.0,4.0,67,0.00,,,0.00,,2013-05-22 05:02:00,
2013-05-21 22:11:00,56.0,45.0,29.86,ESE,112,2.0,5.0,67,0.00,,,0.00,,2013-05-22 05:11:00,
2013-05-21 22:21:00,56.0,45.0,29.86,ESE,112,2.0,5.0,67,0.00,,,0.00,,2013-05-22 05:21:00,
2013-05-21 22:31:00,56.0,45.0,29.85,SSE,147,1.0,3.0,66,0.00,,,0.00,,2013-05-22 05:31:00,
2013-05-21 22:42:00,57.0,45.0,29.86,ENE,74,5.0,7.0,63,0.00,,,0.00,,2013-05-22 05:42:00,
2013-05-21 22:52:00,57.0,45.0,29.86,ENE,74,5.0,7.0,63,0.00,,,0.00,,2013-05-22 05:52:00,
2013-05-21 23:01:00,57.0,44.0,29.85,East,79,5.0,7.0,62,0.00,,,0.00,,2013-05-22 06:01:00,
2013-05-21 23:11:00,56.0,44.0,29.85,ESE,111,3.0,7.0,63,0.00,,,0.00,,2013-05-22 06:11:00,
2013-05-21 23:21:00,56.0,44.0,29.85,ESE,111,3.0,7.0,63,0.00,,,0.00,,2013-05-22 06:21:00,
2013-05-21 23:31:00,56.0,46.0,29.85,East,98,5.0,8.0,68,0.00,,,0.00,,2013-05-22 06:31:00,
2013-05-21 23:41:00,56.0,45.0,29.85,East,98,0.0,0.0,66,0.00,,,0.00,,2013-05-22 06:41:00,
2013-05-21 23:52:00,56.0,45.0,29.85,East,98,0.0,0.0,66,0.00,,,0.00,,2013-05-22 06:52:00,